sensor_id;sensor_type;location;lat;lon;timestamp;pressure;altitude;pressure_sealevel;temperature
79089;BMP280;68489;50.286;9.452;2023-09-08T00:00:00;97771.41;;;18.08
79089;BMP280;68489;50.286;9.452;2023-09-08T00:02:27;97764.13;;;18.19
79089;BMP280;68489;50.286;9.452;2023-09-08T00:04:53;97760.78;;;18.30
79089;BMP280;68489;50.286;9.452;2023-09-08T00:07:18;97768.50;;;18.49
79089;BMP280;68489;50.286;9.452;2023-09-08T00:09:43;97757.31;;;18.61
79089;BMP280;68489;50.286;9.452;2023-09-08T00:12:09;97759.34;;;18.72
79089;BMP280;68489;50.286;9.452;2023-09-08T00:14:34;97762.84;;;18.89
79089;BMP280;68489;50.286;9.452;2023-09-08T00:16:59;97756.28;;;19.01
79089;BMP280;68489;50.286;9.452;2023-09-08T00:19:24;97754.13;;;19.11
79089;BMP280;68489;50.286;9.452;2023-09-08T00:21:50;97754.88;;;19.17
79089;BMP280;68489;50.286;9.452;2023-09-08T00:24:16;97740.44;;;19.20
79089;BMP280;68489;50.286;9.452;2023-09-08T00:26:41;97742.38;;;19.25
79089;BMP280;68489;50.286;9.452;2023-09-08T00:29:06;97750.47;;;19.25
79089;BMP280;68489;50.286;9.452;2023-09-08T00:31:32;97747.78;;;19.25
79089;BMP280;68489;50.286;9.452;2023-09-08T00:33:58;97747.53;;;19.35
79089;BMP280;68489;50.286;9.452;2023-09-08T00:36:23;97754.94;;;19.34
79089;BMP280;68489;50.286;9.452;2023-09-08T00:38:49;97757.38;;;19.38
79089;BMP280;68489;50.286;9.452;2023-09-08T00:41:14;97757.88;;;19.42
79089;BMP280;68489;50.286;9.452;2023-09-08T00:43:39;97753.97;;;19.54
79089;BMP280;68489;50.286;9.452;2023-09-08T00:46:06;97752.53;;;19.70
79089;BMP280;68489;50.286;9.452;2023-09-08T00:48:31;97748.88;;;19.78
79089;BMP280;68489;50.286;9.452;2023-09-08T00:50:57;97747.59;;;19.63
79089;BMP280;68489;50.286;9.452;2023-09-08T00:53:22;97750.28;;;19.46
79089;BMP280;68489;50.286;9.452;2023-09-08T00:55:48;97750.94;;;19.18
79089;BMP280;68489;50.286;9.452;2023-09-08T00:58:14;97755.94;;;18.77
79089;BMP280;68489;50.286;9.452;2023-09-08T01:00:39;97748.97;;;18.54
79089;BMP280;68489;50.286;9.452;2023-09-08T01:03:05;97752.25;;;18.32
79089;BMP280;68489;50.286;9.452;2023-09-08T01:05:30;97749.34;;;18.04
79089;BMP280;68489;50.286;9.452;2023-09-08T01:07:55;97759.69;;;17.85
79089;BMP280;68489;50.286;9.452;2023-09-08T01:10:22;97756.34;;;17.70
79089;BMP280;68489;50.286;9.452;2023-09-08T01:12:48;97748.41;;;17.55
79089;BMP280;68489;50.286;9.452;2023-09-08T01:15:13;97754.13;;;17.42
79089;BMP280;68489;50.286;9.452;2023-09-08T01:17:38;97747.16;;;17.30
79089;BMP280;68489;50.286;9.452;2023-09-08T01:20:13;97753.16;;;17.19
79089;BMP280;68489;50.286;9.452;2023-09-08T01:25:28;97746.84;;;17.22
79089;BMP280;68489;50.286;9.452;2023-09-08T01:27:58;97756.84;;;17.22
79089;BMP280;68489;50.286;9.452;2023-09-08T01:30:25;97759.22;;;17.34
79089;BMP280;68489;50.286;9.452;2023-09-08T01:32:52;97762.06;;;17.31
79089;BMP280;68489;50.286;9.452;2023-09-08T01:35:18;97754.97;;;17.28
79089;BMP280;68489;50.286;9.452;2023-09-08T01:37:45;97759.84;;;17.24
79089;BMP280;68489;50.286;9.452;2023-09-08T01:40:10;97754.03;;;17.10
79089;BMP280;68489;50.286;9.452;2023-09-08T01:42:37;97749.75;;;16.98
79089;BMP280;68489;50.286;9.452;2023-09-08T01:45:03;97746.94;;;16.87
79089;BMP280;68489;50.286;9.452;2023-09-08T01:47:29;97748.16;;;16.71
79089;BMP280;68489;50.286;9.452;2023-09-08T01:49:55;97746.50;;;16.59
79089;BMP280;68489;50.286;9.452;2023-09-08T01:52:20;97746.19;;;16.51
79089;BMP280;68489;50.286;9.452;2023-09-08T01:54:45;97740.47;;;16.44
79089;BMP280;68489;50.286;9.452;2023-09-08T01:57:10;97738.44;;;16.39
79089;BMP280;68489;50.286;9.452;2023-09-08T01:59:36;97736.09;;;16.31
79089;BMP280;68489;50.286;9.452;2023-09-08T02:02:02;97747.50;;;16.26
79089;BMP280;68489;50.286;9.452;2023-09-08T02:04:28;97741.16;;;16.24
79089;BMP280;68489;50.286;9.452;2023-09-08T02:06:53;97739.19;;;16.24
79089;BMP280;68489;50.286;9.452;2023-09-08T02:09:19;97739.63;;;16.23
79089;BMP280;68489;50.286;9.452;2023-09-08T02:11:44;97735.94;;;16.20
79089;BMP280;68489;50.286;9.452;2023-09-08T02:14:09;97729.75;;;16.14
79089;BMP280;68489;50.286;9.452;2023-09-08T02:16:34;97732.06;;;16.07
79089;BMP280;68489;50.286;9.452;2023-09-08T02:19:00;97734.94;;;16.03
79089;BMP280;68489;50.286;9.452;2023-09-08T02:21:25;97736.34;;;16.13
79089;BMP280;68489;50.286;9.452;2023-09-08T02:23:50;97732.06;;;16.07
79089;BMP280;68489;50.286;9.452;2023-09-08T02:26:15;97736.34;;;16.13
79089;BMP280;68489;50.286;9.452;2023-09-08T02:28:41;97735.94;;;16.20
79089;BMP280;68489;50.286;9.452;2023-09-08T02:31:06;97740.94;;;16.27
79089;BMP280;68489;50.286;9.452;2023-09-08T02:33:31;97741.84;;;16.39
79089;BMP280;68489;50.286;9.452;2023-09-08T02:36:04;97741.94;;;16.45
79089;BMP280;68489;50.286;9.452;2023-09-08T02:38:30;97740.97;;;16.48
79089;BMP280;68489;50.286;9.452;2023-09-08T02:40:55;97729.50;;;16.47
79089;BMP280;68489;50.286;9.452;2023-09-08T02:43:20;97734.53;;;16.40
79089;BMP280;68489;50.286;9.452;2023-09-08T02:45:46;97732.69;;;16.31
79089;BMP280;68489;50.286;9.452;2023-09-08T02:48:12;97733.84;;;16.24
79089;BMP280;68489;50.286;9.452;2023-09-08T02:50:37;97730.03;;;16.16
79089;BMP280;68489;50.286;9.452;2023-09-08T02:53:03;97723.28;;;16.06
79089;BMP280;68489;50.286;9.452;2023-09-08T02:55:28;97725.03;;;16.09
79089;BMP280;68489;50.286;9.452;2023-09-08T02:57:55;97729.59;;;16.03
79089;BMP280;68489;50.286;9.452;2023-09-08T03:00:21;97728.34;;;16.04
79089;BMP280;68489;50.286;9.452;2023-09-08T03:02:46;97727.56;;;16.13
79089;BMP280;68489;50.286;9.452;2023-09-08T03:05:11;97727.63;;;16.18
79089;BMP280;68489;50.286;9.452;2023-09-08T03:07:36;97726.59;;;16.16
79089;BMP280;68489;50.286;9.452;2023-09-08T03:10:03;97733.09;;;16.24
79089;BMP280;68489;50.286;9.452;2023-09-08T03:12:29;97729.28;;;16.30
79089;BMP280;68489;50.286;9.452;2023-09-08T03:14:55;97723.72;;;16.34
79089;BMP280;68489;50.286;9.452;2023-09-08T03:17:20;97728.63;;;16.36
79089;BMP280;68489;50.286;9.452;2023-09-08T03:19:45;97716.22;;;16.38
79089;BMP280;68489;50.286;9.452;2023-09-08T03:22:11;97723.03;;;16.54
79089;BMP280;68489;50.286;9.452;2023-09-08T03:24:36;97710.13;;;16.58
79089;BMP280;68489;50.286;9.452;2023-09-08T03:27:02;97721.25;;;16.66
79089;BMP280;68489;50.286;9.452;2023-09-08T03:29:27;97714.78;;;16.93
79089;BMP280;68489;50.286;9.452;2023-09-08T03:31:52;97713.22;;;17.06
79089;BMP280;68489;50.286;9.452;2023-09-08T03:34:17;97712.56;;;17.17
79089;BMP280;68489;50.286;9.452;2023-09-08T03:36:45;97718.19;;;17.40
79089;BMP280;68489;50.286;9.452;2023-09-08T03:39:10;97720.88;;;17.40
79089;BMP280;68489;50.286;9.452;2023-09-08T03:41:35;97708.25;;;17.46
79089;BMP280;68489;50.286;9.452;2023-09-08T03:44:01;97713.38;;;17.44
79089;BMP280;68489;50.286;9.452;2023-09-08T03:46:26;97709.59;;;17.35
79089;BMP280;68489;50.286;9.452;2023-09-08T03:48:51;97710.88;;;17.20
79089;BMP280;68489;50.286;9.452;2023-09-08T03:51:19;97710.97;;;17.05
79089;BMP280;68489;50.286;9.452;2023-09-08T03:53:44;97713.75;;;16.90
79089;BMP280;68489;50.286;9.452;2023-09-08T03:56:10;97705.53;;;16.79
79089;BMP280;68489;50.286;9.452;2023-09-08T03:58:35;97717.97;;;16.76
79089;BMP280;68489;50.286;9.452;2023-09-08T04:01:00;97709.56;;;16.69
79089;BMP280;68489;50.286;9.452;2023-09-08T04:03:25;97714.28;;;16.59
79089;BMP280;68489;50.286;9.452;2023-09-08T04:05:51;97711.44;;;16.48
79089;BMP280;68489;50.286;9.452;2023-09-08T04:08:16;97706.66;;;16.37
79089;BMP280;68489;50.286;9.452;2023-09-08T04:10:41;97708.81;;;16.33
79089;BMP280;68489;50.286;9.452;2023-09-08T04:13:06;97715.88;;;16.30
79089;BMP280;68489;50.286;9.452;2023-09-08T04:15:31;97720.41;;;16.24
79089;BMP280;68489;50.286;9.452;2023-09-08T04:17:57;97718.09;;;16.17
79089;BMP280;68489;50.286;9.452;2023-09-08T04:20:22;97713.09;;;16.10
79089;BMP280;68489;50.286;9.452;2023-09-08T04:22:48;97715.69;;;16.04
79089;BMP280;68489;50.286;9.452;2023-09-08T04:25:13;97718.28;;;15.99
79089;BMP280;68489;50.286;9.452;2023-09-08T04:27:38;97718.47;;;15.95
79089;BMP280;68489;50.286;9.452;2023-09-08T04:30:05;97721.06;;;15.90
79089;BMP280;68489;50.286;9.452;2023-09-08T04:32:31;97729.47;;;15.83
79089;BMP280;68489;50.286;9.452;2023-09-08T04:34:56;97721.06;;;15.75
79089;BMP280;68489;50.286;9.452;2023-09-08T04:37:21;97720.69;;;15.67
79089;BMP280;68489;50.286;9.452;2023-09-08T04:39:47;97726.41;;;15.60
79089;BMP280;68489;50.286;9.452;2023-09-08T04:42:12;97733.16;;;15.56
79089;BMP280;68489;50.286;9.452;2023-09-08T04:44:38;97732.31;;;15.49
79089;BMP280;68489;50.286;9.452;2023-09-08T04:47:04;97732.19;;;15.44
79089;BMP280;68489;50.286;9.452;2023-09-08T04:49:30;97731.81;;;15.36
79089;BMP280;68489;50.286;9.452;2023-09-08T04:51:55;97737.81;;;15.31
79089;BMP280;68489;50.286;9.452;2023-09-08T04:54:20;97732.34;;;15.26
79089;BMP280;68489;50.286;9.452;2023-09-08T04:56:47;97736.34;;;15.21
79089;BMP280;68489;50.286;9.452;2023-09-08T04:59:12;97744.16;;;15.19
79089;BMP280;68489;50.286;9.452;2023-09-08T05:01:38;97738.94;;;15.15
79089;BMP280;68489;50.286;9.452;2023-09-08T05:04:03;97738.69;;;15.13
79089;BMP280;68489;50.286;9.452;2023-09-08T05:06:29;97735.50;;;15.15
79089;BMP280;68489;50.286;9.452;2023-09-08T05:08:55;97732.22;;;15.20
79089;BMP280;68489;50.286;9.452;2023-09-08T05:11:20;97728.94;;;15.25
79089;BMP280;68489;50.286;9.452;2023-09-08T05:13:46;97730.44;;;15.41
79089;BMP280;68489;50.286;9.452;2023-09-08T05:16:11;97740.44;;;15.55
79089;BMP280;68489;50.286;9.452;2023-09-08T05:18:40;97728.91;;;15.64
79089;BMP280;68489;50.286;9.452;2023-09-08T05:21:06;97739.84;;;15.75
79089;BMP280;68489;50.286;9.452;2023-09-08T05:23:32;97737.16;;;15.90
79089;BMP280;68489;50.286;9.452;2023-09-08T05:25:58;97732.34;;;16.09
79089;BMP280;68489;50.286;9.452;2023-09-08T05:28:23;97737.69;;;16.23
79089;BMP280;68489;50.286;9.452;2023-09-08T05:30:52;97741.28;;;16.50
79089;BMP280;68489;50.286;9.452;2023-09-08T05:33:17;97743.72;;;16.68
79089;BMP280;68489;50.286;9.452;2023-09-08T05:35:44;97749.00;;;16.98
79089;BMP280;68489;50.286;9.452;2023-09-08T05:38:09;97752.44;;;17.45
79089;BMP280;68489;50.286;9.452;2023-09-08T05:40:35;97756.69;;;17.77
79089;BMP280;68489;50.286;9.452;2023-09-08T05:43:00;97765.47;;;17.98
79089;BMP280;68489;50.286;9.452;2023-09-08T05:45:26;97761.03;;;18.27
79089;BMP280;68489;50.286;9.452;2023-09-08T05:47:51;97752.78;;;18.41
79089;BMP280;68489;50.286;9.452;2023-09-08T05:50:17;97761.44;;;18.57
79089;BMP280;68489;50.286;9.452;2023-09-08T05:52:43;97751.72;;;18.70
79089;BMP280;68489;50.286;9.452;2023-09-08T05:55:08;97758.44;;;18.86
79089;BMP280;68489;50.286;9.452;2023-09-08T05:57:33;97750.84;;;18.90
79089;BMP280;68489;50.286;9.452;2023-09-08T06:00:00;97760.94;;;19.01
79089;BMP280;68489;50.286;9.452;2023-09-08T06:02:25;97757.81;;;19.14
79089;BMP280;68489;50.286;9.452;2023-09-08T06:04:50;97760.78;;;19.27
79089;BMP280;68489;50.286;9.452;2023-09-08T06:07:15;97761.53;;;19.39
79089;BMP280;68489;50.286;9.452;2023-09-08T06:09:41;97754.69;;;19.49
79089;BMP280;68489;50.286;9.452;2023-09-08T06:12:06;97756.69;;;19.60
79089;BMP280;68489;50.286;9.452;2023-09-08T06:14:31;97743.19;;;19.71
79089;BMP280;68489;50.286;9.452;2023-09-08T06:16:57;97745.41;;;19.83
79089;BMP280;68489;50.286;9.452;2023-09-08T06:19:22;97749.34;;;19.88
79089;BMP280;68489;50.286;9.452;2023-09-08T06:21:47;97750.34;;;19.91
79089;BMP280;68489;50.286;9.452;2023-09-08T06:24:12;97755.50;;;20.00
79089;BMP280;68489;50.286;9.452;2023-09-08T06:26:38;97750.06;;;20.11
79089;BMP280;68489;50.286;9.452;2023-09-08T06:29:03;97748.59;;;20.16
79089;BMP280;68489;50.286;9.452;2023-09-08T06:31:28;97767.25;;;20.19
79089;BMP280;68489;50.286;9.452;2023-09-08T06:33:54;97752.47;;;20.31
79089;BMP280;68489;50.286;9.452;2023-09-08T06:36:19;97757.13;;;20.36
79089;BMP280;68489;50.286;9.452;2023-09-08T06:38:44;97761.06;;;20.41
79089;BMP280;68489;50.286;9.452;2023-09-08T06:41:11;97758.88;;;20.28
79089;BMP280;68489;50.286;9.452;2023-09-08T06:43:36;97757.44;;;20.16
79089;BMP280;68489;50.286;9.452;2023-09-08T06:46:02;97759.63;;;20.01
79089;BMP280;68489;50.286;9.452;2023-09-08T06:48:27;97758.66;;;19.93
79089;BMP280;68489;50.286;9.452;2023-09-08T06:50:53;97762.59;;;19.86
79089;BMP280;68489;50.286;9.452;2023-09-08T06:53:19;97759.88;;;19.80
79089;BMP280;68489;50.286;9.452;2023-09-08T06:55:44;97763.81;;;19.74
79089;BMP280;68489;50.286;9.452;2023-09-08T06:58:10;97765.75;;;19.79
79089;BMP280;68489;50.286;9.452;2023-09-08T07:00:35;97770.69;;;19.97
79089;BMP280;68489;50.286;9.452;2023-09-08T07:03:00;97770.66;;;20.14
79089;BMP280;68489;50.286;9.452;2023-09-08T07:05:27;97769.69;;;20.34
79089;BMP280;68489;50.286;9.452;2023-09-08T07:07:52;97764.72;;;20.55
79089;BMP280;68489;50.286;9.452;2023-09-08T07:10:17;97770.31;;;20.74
79089;BMP280;68489;50.286;9.452;2023-09-08T07:12:43;97767.31;;;20.88
79089;BMP280;68489;50.286;9.452;2023-09-08T07:15:08;97769.47;;;21.01
79089;BMP280;68489;50.286;9.452;2023-09-08T07:17:34;97769.66;;;21.14
79089;BMP280;68489;50.286;9.452;2023-09-08T07:19:59;97770.06;;;21.24
79089;BMP280;68489;50.286;9.452;2023-09-08T07:22:24;97768.56;;;21.34
79089;BMP280;68489;50.286;9.452;2023-09-08T07:24:50;97762.50;;;21.52
79089;BMP280;68489;50.286;9.452;2023-09-08T07:27:15;97756.06;;;21.61
79089;BMP280;68489;50.286;9.452;2023-09-08T07:29:41;97758.22;;;21.68
79089;BMP280;68489;50.286;9.452;2023-09-08T07:32:07;97756.22;;;21.74
79089;BMP280;68489;50.286;9.452;2023-09-08T07:34:32;97763.03;;;21.87
79089;BMP280;68489;50.286;9.452;2023-09-08T07:36:57;97763.19;;;21.94
79089;BMP280;68489;50.286;9.452;2023-09-08T07:39:22;97765.28;;;22.07
79089;BMP280;68489;50.286;9.452;2023-09-08T07:41:48;97765.28;;;22.07
79089;BMP280;68489;50.286;9.452;2023-09-08T07:44:13;97762.75;;;22.15
79089;BMP280;68489;50.286;9.452;2023-09-08T07:46:41;97765.56;;;22.28
79089;BMP280;68489;50.286;9.452;2023-09-08T07:49:06;97773.16;;;22.35
79089;BMP280;68489;50.286;9.452;2023-09-08T07:51:31;97768.38;;;22.41
79089;BMP280;68489;50.286;9.452;2023-09-08T07:53:56;97764.88;;;22.46
79089;BMP280;68489;50.286;9.452;2023-09-08T07:56:22;97764.50;;;22.55
79089;BMP280;68489;50.286;9.452;2023-09-08T07:58:47;97773.09;;;22.59
79089;BMP280;68489;50.286;9.452;2023-09-08T08:01:13;97762.69;;;22.63
79089;BMP280;68489;50.286;9.452;2023-09-08T08:03:39;97762.69;;;22.63
79089;BMP280;68489;50.286;9.452;2023-09-08T08:06:04;97764.06;;;22.76
79089;BMP280;68489;50.286;9.452;2023-09-08T08:08:30;97752.59;;;22.83
79089;BMP280;68489;50.286;9.452;2023-09-08T08:10:56;97757.03;;;22.86
79089;BMP280;68489;50.286;9.452;2023-09-08T08:13:21;97752.75;;;22.90
79089;BMP280;68489;50.286;9.452;2023-09-08T08:15:46;97754.69;;;22.95
79089;BMP280;68489;50.286;9.452;2023-09-08T08:18:12;97748.66;;;23.03
79089;BMP280;68489;50.286;9.452;2023-09-08T08:20:38;97748.50;;;23.14
79089;BMP280;68489;50.286;9.452;2023-09-08T08:23:04;97739.75;;;23.21
79089;BMP280;68489;50.286;9.452;2023-09-08T08:25:30;97743.88;;;23.28
79089;BMP280;68489;50.286;9.452;2023-09-08T08:27:55;97747.44;;;23.36
79089;BMP280;68489;50.286;9.452;2023-09-08T08:30:25;97746.97;;;23.50
79089;BMP280;68489;50.286;9.452;2023-09-08T08:32:51;97751.59;;;23.56
79089;BMP280;68489;50.286;9.452;2023-09-08T08:35:18;97749.72;;;23.64
79089;BMP280;68489;50.286;9.452;2023-09-08T08:37:43;97747.84;;;23.72
79089;BMP280;68489;50.286;9.452;2023-09-08T08:40:12;97740.97;;;23.84
79089;BMP280;68489;50.286;9.452;2023-09-08T08:42:37;97738.38;;;23.92
79089;BMP280;68489;50.286;9.452;2023-09-08T08:45:03;97741.09;;;24.05
79089;BMP280;68489;50.286;9.452;2023-09-08T08:47:29;97742.44;;;24.11
79089;BMP280;68489;50.286;9.452;2023-09-08T08:49:56;97745.16;;;24.11
79089;BMP280;68489;50.286;9.452;2023-09-08T08:52:21;97736.31;;;24.11
79089;BMP280;68489;50.286;9.452;2023-09-08T08:54:47;97747.16;;;24.24
79089;BMP280;68489;50.286;9.452;2023-09-08T08:57:12;97748.41;;;24.23
79089;BMP280;68489;50.286;9.452;2023-09-08T08:59:39;97745.38;;;24.27
79089;BMP280;68489;50.286;9.452;2023-09-08T09:02:07;97753.31;;;24.38
79089;BMP280;68489;50.286;9.452;2023-09-08T09:04:34;97753.50;;;24.53
79089;BMP280;68489;50.286;9.452;2023-09-08T09:07:01;97744.81;;;24.55
79089;BMP280;68489;50.286;9.452;2023-09-08T09:09:28;97745.13;;;24.64
79089;BMP280;68489;50.286;9.452;2023-09-08T09:11:53;97756.69;;;24.78
79089;BMP280;68489;50.286;9.452;2023-09-08T09:14:19;97763.75;;;24.94
79089;BMP280;68489;50.286;9.452;2023-09-08T09:16:44;97763.97;;;24.96
79089;BMP280;68489;50.286;9.452;2023-09-08T09:19:17;97758.50;;;25.10
79089;BMP280;68489;50.286;9.452;2023-09-08T09:21:45;97760.53;;;25.17
79089;BMP280;68489;50.286;9.452;2023-09-08T09:24:17;97767.19;;;25.29
79089;BMP280;68489;50.286;9.452;2023-09-08T09:26:53;97759.59;;;25.35
79089;BMP280;68489;50.286;9.452;2023-09-08T09:29:18;97765.59;;;25.34
79089;BMP280;68489;50.286;9.452;2023-09-08T09:31:51;97762.88;;;25.54
79089;BMP280;68489;50.286;9.452;2023-09-08T09:34:17;97759.16;;;25.65
79089;BMP280;68489;50.286;9.452;2023-09-08T09:36:43;97763.38;;;25.74
79089;BMP280;68489;50.286;9.452;2023-09-08T09:39:10;97763.09;;;25.85
79089;BMP280;68489;50.286;9.452;2023-09-08T09:41:35;97759.19;;;26.01
79089;BMP280;68489;50.286;9.452;2023-09-08T09:44:01;97759.28;;;26.16
79089;BMP280;68489;50.286;9.452;2023-09-08T09:46:28;97750.91;;;26.14
79089;BMP280;68489;50.286;9.452;2023-09-08T09:48:56;97762.19;;;26.18
79089;BMP280;68489;50.286;9.452;2023-09-08T09:51:22;97758.47;;;26.37
79089;BMP280;68489;50.286;9.452;2023-09-08T09:53:49;97755.22;;;26.46
79089;BMP280;68489;50.286;9.452;2023-09-08T09:56:16;97756.84;;;26.49
79089;BMP280;68489;50.286;9.452;2023-09-08T09:58:42;97756.84;;;26.49
79089;BMP280;68489;50.286;9.452;2023-09-08T10:01:08;97754.91;;;26.57
79089;BMP280;68489;50.286;9.452;2023-09-08T10:03:33;97764.94;;;26.70
79089;BMP280;68489;50.286;9.452;2023-09-08T10:05:59;97757.13;;;26.66
79089;BMP280;68489;50.286;9.452;2023-09-08T10:08:24;97749.66;;;26.67
79089;BMP280;68489;50.286;9.452;2023-09-08T10:10:50;97746.56;;;26.78
79089;BMP280;68489;50.286;9.452;2023-09-08T10:13:23;97749.69;;;26.90
79089;BMP280;68489;50.286;9.452;2023-09-08T10:15:52;97745.53;;;27.04
79089;BMP280;68489;50.286;9.452;2023-09-08T10:18:21;97749.19;;;27.06
79089;BMP280;68489;50.286;9.452;2023-09-08T10:20:48;97744.84;;;27.19
79089;BMP280;68489;50.286;9.452;2023-09-08T10:23:23;97738.63;;;27.10
79089;BMP280;68489;50.286;9.452;2023-09-08T10:25:56;97742.81;;;27.11
79089;BMP280;68489;50.286;9.452;2023-09-08T10:28:25;97745.00;;;27.21
79089;BMP280;68489;50.286;9.452;2023-09-08T10:30:51;97737.53;;;27.29
79089;BMP280;68489;50.286;9.452;2023-09-08T10:33:17;97749.00;;;27.27
79089;BMP280;68489;50.286;9.452;2023-09-08T10:35:43;97734.81;;;27.29
79089;BMP280;68489;50.286;9.452;2023-09-08T10:40:46;97727.53;;;27.54
79089;BMP280;68489;50.286;9.452;2023-09-08T10:43:11;97728.06;;;27.60
79089;BMP280;68489;50.286;9.452;2023-09-08T10:45:36;97730.78;;;27.68
79089;BMP280;68489;50.286;9.452;2023-09-08T10:48:02;97730.22;;;27.69
79089;BMP280;68489;50.286;9.452;2023-09-08T10:50:35;97727.28;;;27.67
79089;BMP280;68489;50.286;9.452;2023-09-08T10:53:09;97726.75;;;27.77
79089;BMP280;68489;50.286;9.452;2023-09-08T10:55:45;97732.50;;;27.96
79089;BMP280;68489;50.286;9.452;2023-09-08T10:58:36;97727.19;;;28.13
79089;BMP280;68489;50.286;9.452;2023-09-08T11:01:04;97722.91;;;28.27
79089;BMP280;68489;50.286;9.452;2023-09-08T11:06:04;97726.88;;;28.42
79089;BMP280;68489;50.286;9.452;2023-09-08T11:08:30;97722.06;;;28.50
79089;BMP280;68489;50.286;9.452;2023-09-08T11:10:56;97723.00;;;28.45
79089;BMP280;68489;50.286;9.452;2023-09-08T11:13:22;97723.75;;;28.45
79089;BMP280;68489;50.286;9.452;2023-09-08T11:15:47;97725.03;;;28.44
79089;BMP280;68489;50.286;9.452;2023-09-08T11:18:15;97716.97;;;28.46
79089;BMP280;68489;50.286;9.452;2023-09-08T11:20:41;97723.19;;;28.47
79089;BMP280;68489;50.286;9.452;2023-09-08T11:23:06;97720.44;;;28.47
79089;BMP280;68489;50.286;9.452;2023-09-08T11:25:32;97716.25;;;28.46
79089;BMP280;68489;50.286;9.452;2023-09-08T11:27:58;97719.03;;;28.71
79089;BMP280;68489;50.286;9.452;2023-09-08T11:30:24;97725.72;;;28.77
79089;BMP280;68489;50.286;9.452;2023-09-08T11:32:50;97726.84;;;28.74
79089;BMP280;68489;50.286;9.452;2023-09-08T11:35:16;97722.44;;;28.79
79089;BMP280;68489;50.286;9.452;2023-09-08T11:37:42;97716.28;;;28.71
79089;BMP280;68489;50.286;9.452;2023-09-08T11:40:09;97721.94;;;28.73
79089;BMP280;68489;50.286;9.452;2023-09-08T11:42:38;97713.53;;;28.78
79089;BMP280;68489;50.286;9.452;2023-09-08T11:45:06;97715.44;;;28.85
79089;BMP280;68489;50.286;9.452;2023-09-08T11:47:33;97709.88;;;28.76
79089;BMP280;68489;50.286;9.452;2023-09-08T11:49:58;97715.50;;;28.78
79089;BMP280;68489;50.286;9.452;2023-09-08T11:52:23;97706.41;;;28.75
79089;BMP280;68489;50.286;9.452;2023-09-08T11:54:52;97710.78;;;28.78
79089;BMP280;68489;50.286;9.452;2023-09-08T11:57:17;97704.66;;;28.87
79089;BMP280;68489;50.286;9.452;2023-09-08T11:59:43;97709.31;;;28.77
79089;BMP280;68489;50.286;9.452;2023-09-08T12:02:11;97709.63;;;28.81
79089;BMP280;68489;50.286;9.452;2023-09-08T12:04:37;97706.78;;;28.72
79089;BMP280;68489;50.286;9.452;2023-09-08T12:07:02;97703.94;;;28.62
79089;BMP280;68489;50.286;9.452;2023-09-08T12:09:28;97702.03;;;28.72
79089;BMP280;68489;50.286;9.452;2023-09-08T12:11:53;97694.94;;;28.44
79089;BMP280;68489;50.286;9.452;2023-09-08T12:14:18;97701.44;;;28.56
79089;BMP280;68489;50.286;9.452;2023-09-08T12:16:43;97697.44;;;28.50
79089;BMP280;68489;50.286;9.452;2023-09-08T12:19:28;97694.72;;;28.50
79089;BMP280;68489;50.286;9.452;2023-09-08T12:21:58;97701.47;;;28.49
79089;BMP280;68489;50.286;9.452;2023-09-08T12:25:07;97697.66;;;28.44
79089;BMP280;68489;50.286;9.452;2023-09-08T12:27:36;97696.28;;;28.28
79089;BMP280;68489;50.286;9.452;2023-09-08T12:30:01;97697.56;;;28.27
79089;BMP280;68489;50.286;9.452;2023-09-08T12:32:30;97693.53;;;28.35
79089;BMP280;68489;50.286;9.452;2023-09-08T12:34:56;97691.75;;;28.23
79089;BMP280;68489;50.286;9.452;2023-09-08T12:37:23;97703.63;;;28.18
79089;BMP280;68489;50.286;9.452;2023-09-08T12:39:49;97700.13;;;28.25
79089;BMP280;68489;50.286;9.452;2023-09-08T12:42:15;97703.69;;;28.10
79089;BMP280;68489;50.286;9.452;2023-09-08T12:44:40;97701.16;;;28.04
79089;BMP280;68489;50.286;9.452;2023-09-08T12:47:06;97699.31;;;28.07
79089;BMP280;68489;50.286;9.452;2023-09-08T12:49:31;97704.59;;;28.05
79089;BMP280;68489;50.286;9.452;2023-09-08T12:51:56;97695.50;;;28.02
79089;BMP280;68489;50.286;9.452;2023-09-08T12:54:22;97695.69;;;27.97
79089;BMP280;68489;50.286;9.452;2023-09-08T12:56:47;97698.25;;;27.95
79089;BMP280;68489;50.286;9.452;2023-09-08T12:59:12;97682.78;;;27.90
79089;BMP280;68489;50.286;9.452;2023-09-08T13:01:38;97689.50;;;27.96
79089;BMP280;68489;50.286;9.452;2023-09-08T13:04:03;97680.59;;;27.96
79089;BMP280;68489;50.286;9.452;2023-09-08T13:06:28;97687.13;;;28.00
79089;BMP280;68489;50.286;9.452;2023-09-08T13:08:54;97679.84;;;27.95
79089;BMP280;68489;50.286;9.452;2023-09-08T13:11:19;97682.03;;;27.97
79089;BMP280;68489;50.286;9.452;2023-09-08T13:13:44;97681.00;;;27.85
79089;BMP280;68489;50.286;9.452;2023-09-08T13:16:10;97676.44;;;27.87
79089;BMP280;68489;50.286;9.452;2023-09-08T13:18:35;97671.13;;;27.89
79089;BMP280;68489;50.286;9.452;2023-09-08T13:21:04;97674.44;;;27.80
79089;BMP280;68489;50.286;9.452;2023-09-08T13:23:29;97666.25;;;27.80
79089;BMP280;68489;50.286;9.452;2023-09-08T13:25:54;97667.56;;;27.71
79089;BMP280;68489;50.286;9.452;2023-09-08T13:28:19;97667.19;;;27.67
79089;BMP280;68489;50.286;9.452;2023-09-08T13:30:45;97669.38;;;27.69
79089;BMP280;68489;50.286;9.452;2023-09-08T13:33:10;97663.72;;;27.74
79089;BMP280;68489;50.286;9.452;2023-09-08T13:35:35;97658.09;;;27.65
79089;BMP280;68489;50.286;9.452;2023-09-08T13:38:01;97667.19;;;27.67
79089;BMP280;68489;50.286;9.452;2023-09-08T13:40:28;97660.59;;;27.70
79089;BMP280;68489;50.286;9.452;2023-09-08T13:42:53;97656.63;;;27.71
79089;BMP280;68489;50.286;9.452;2023-09-08T13:45:18;97656.63;;;27.71
79089;BMP280;68489;50.286;9.452;2023-09-08T13:47:44;97651.16;;;27.71
79089;BMP280;68489;50.286;9.452;2023-09-08T13:50:09;97652.06;;;27.74
79089;BMP280;68489;50.286;9.452;2023-09-08T13:52:34;97650.78;;;27.75
79089;BMP280;68489;50.286;9.452;2023-09-08T13:55:00;97654.97;;;27.76
79089;BMP280;68489;50.286;9.452;2023-09-08T13:57:25;97649.34;;;27.66
79089;BMP280;68489;50.286;9.452;2023-09-08T13:59:51;97653.72;;;27.62
79089;BMP280;68489;50.286;9.452;2023-09-08T14:02:19;97649.00;;;27.62
79089;BMP280;68489;50.286;9.452;2023-09-08T14:04:44;97645.59;;;27.54
79089;BMP280;68489;50.286;9.452;2023-09-08T14:07:10;97646.50;;;27.49
79089;BMP280;68489;50.286;9.452;2023-09-08T14:09:35;97645.59;;;27.54